createdAt,value
2017-05-06T00:00:29.266Z,7.10
2017-05-06T00:02:59.040Z,7.10
2017-05-06T00:05:28.020Z,7.10
2017-05-06T00:07:57.328Z,7.10
2017-05-06T00:10:26.333Z,7.10
2017-05-06T00:12:55.306Z,7.10
2017-05-06T00:15:24.531Z,7.10
2017-05-06T00:17:53.548Z,7.00
2017-05-06T00:20:22.538Z,7.00
2017-05-06T00:22:52.267Z,6.90
2017-05-06T00:25:21.271Z,6.90
2017-05-06T00:27:50.547Z,6.90
2017-05-06T00:30:19.551Z,6.90
2017-05-06T00:32:48.534Z,6.90
2017-05-06T00:35:17.890Z,6.90
2017-05-06T00:37:46.880Z,6.80
2017-05-06T00:40:15.863Z,6.80
2017-05-06T00:42:44.855Z,6.80
2017-05-06T00:45:13.821Z,6.70
2017-05-06T00:47:43.167Z,6.70
2017-05-06T00:50:12.139Z,6.70
2017-05-06T00:52:41.116Z,6.70
2017-05-06T00:55:10.365Z,6.60
2017-05-06T00:57:39.378Z,6.60
2017-05-06T01:00:08.417Z,6.60
2017-05-06T01:02:37.713Z,6.60
2017-05-06T01:05:06.708Z,6.60
2017-05-06T01:07:35.682Z,6.50
2017-05-06T01:10:05.000Z,6.50
2017-05-06T01:12:33.990Z,6.40
2017-05-06T01:15:02.964Z,6.40
2017-05-06T01:17:31.970Z,6.40
2017-05-06T01:20:00.958Z,6.30
2017-05-06T01:22:30.233Z,6.30
2017-05-06T01:24:59.208Z,6.30
2017-05-06T01:27:28.183Z,6.30
2017-05-06T01:29:57.159Z,6.20
2017-05-06T01:32:26.898Z,6.20
2017-05-06T01:34:56.188Z,6.20
2017-05-06T01:37:25.202Z,6.10
2017-05-06T01:39:54.205Z,6.10
2017-05-06T01:42:23.196Z,6.10
2017-05-06T01:44:52.171Z,6.00
2017-05-06T01:47:21.211Z,6.00
2017-05-06T01:49:50.193Z,6.00
2017-05-06T01:52:19.472Z,5.90
2017-05-06T01:54:48.451Z,5.90
2017-05-06T01:57:17.421Z,5.90
2017-05-06T01:59:46.415Z,5.90
2017-05-06T02:02:15.408Z,5.80
2017-05-06T02:04:44.741Z,5.80
2017-05-06T02:07:13.727Z,5.80
2017-05-06T02:09:42.691Z,5.80
2017-05-06T02:12:11.692Z,5.70
2017-05-06T02:14:40.684Z,5.70
2017-05-06T02:17:10.013Z,5.70
2017-05-06T02:19:38.924Z,5.70
2017-05-06T02:22:07.924Z,5.60
2017-05-06T02:24:37.288Z,5.70
2017-05-06T02:27:06.270Z,5.70
2017-05-06T02:29:35.264Z,5.70
2017-05-06T02:32:04.261Z,5.60
2017-05-06T02:34:33.243Z,5.60
2017-05-06T02:37:02.558Z,5.60
2017-05-06T02:39:31.538Z,5.50
2017-05-06T02:42:00.530Z,5.50
2017-05-06T02:44:29.829Z,5.40
2017-05-06T02:46:58.817Z,5.40
2017-05-06T02:49:27.804Z,5.40
2017-05-06T02:51:57.155Z,5.40
2017-05-06T02:54:26.178Z,5.30
2017-05-06T02:56:55.062Z,5.30
2017-05-06T02:59:24.094Z,5.30
2017-05-06T03:01:53.080Z,5.20
2017-05-06T03:04:22.064Z,5.20
2017-05-06T03:06:51.054Z,5.10
2017-05-06T03:09:20.051Z,5.10
2017-05-06T03:11:49.037Z,5.10
2017-05-06T03:14:18.349Z,5.10
2017-05-06T03:16:47.332Z,5.10
2017-05-06T03:19:16.319Z,5.10
2017-05-06T03:21:45.756Z,5.00
2017-05-06T03:24:15.460Z,5.00
2017-05-06T03:26:45.549Z,5.00
2017-05-06T03:29:14.630Z,4.90
2017-05-06T03:31:43.615Z,4.90
2017-05-06T03:34:12.629Z,4.90
2017-05-06T03:36:41.610Z,4.90
2017-05-06T03:39:10.973Z,4.90
2017-05-06T03:41:39.961Z,4.90
2017-05-06T03:44:08.943Z,4.90
2017-05-06T03:46:38.258Z,4.90
2017-05-06T03:49:07.227Z,4.80
2017-05-06T03:51:36.197Z,4.80
2017-05-06T03:54:06.253Z,4.70
2017-05-06T03:56:35.233Z,4.70
2017-05-06T03:59:04.194Z,4.70
2017-05-06T04:01:33.937Z,4.70
2017-05-06T04:04:02.819Z,4.70
2017-05-06T04:06:32.192Z,4.70
2017-05-06T04:09:01.894Z,4.70
2017-05-06T04:11:30.845Z,4.70
2017-05-06T04:13:59.873Z,4.70
2017-05-06T04:16:28.845Z,4.70
2017-05-06T04:18:57.791Z,4.70
2017-05-06T04:21:26.747Z,4.70
2017-05-06T04:23:56.013Z,4.70
2017-05-06T04:26:24.956Z,4.70
2017-05-06T04:28:54.688Z,4.70
2017-05-06T04:31:23.708Z,4.70
2017-05-06T04:33:52.655Z,4.60
2017-05-06T04:36:21.642Z,4.60
2017-05-06T04:38:50.614Z,4.60
2017-05-06T04:41:20.605Z,4.60
2017-05-06T04:43:49.503Z,4.60
2017-05-06T04:46:19.125Z,4.60
2017-05-06T04:48:49.174Z,4.60
2017-05-06T04:51:18.156Z,4.60
2017-05-06T04:53:47.494Z,4.70
2017-05-06T04:56:16.454Z,4.80
2017-05-06T04:58:45.413Z,4.90
2017-05-06T05:01:15.486Z,5.00
2017-05-06T05:03:44.455Z,5.00
2017-05-06T05:06:13.425Z,5.10
2017-05-06T05:08:42.412Z,5.10
2017-05-06T05:11:11.384Z,5.20
2017-05-06T05:13:40.754Z,5.20
2017-05-06T05:16:09.741Z,5.30
2017-05-06T05:18:38.703Z,5.50
2017-05-06T05:21:08.031Z,5.60
2017-05-06T05:23:37.013Z,5.70
2017-05-06T05:26:05.979Z,5.80
2017-05-06T05:28:34.958Z,5.90
2017-05-06T05:31:03.920Z,6.20
2017-05-06T05:33:32.896Z,6.50
2017-05-06T05:36:01.872Z,6.70
2017-05-06T05:38:31.129Z,6.90
2017-05-06T05:41:00.116Z,7.10
2017-05-06T05:43:29.819Z,7.30
2017-05-06T05:45:59.890Z,7.50
2017-05-06T05:48:28.849Z,7.70
2017-05-06T05:50:57.821Z,7.80
2017-05-06T05:53:27.537Z,7.90
2017-05-06T05:55:56.501Z,8.10
2017-05-06T05:58:26.519Z,8.20
2017-05-06T06:00:55.494Z,8.30
2017-05-06T06:03:24.460Z,8.50
2017-05-06T06:05:53.866Z,8.60
2017-05-06T06:08:22.843Z,8.80
2017-05-06T06:10:51.778Z,9.00
2017-05-06T06:13:21.126Z,9.10
2017-05-06T06:15:50.091Z,9.30
2017-05-06T06:18:19.064Z,9.40
2017-05-06T06:20:49.050Z,9.60
2017-05-06T06:23:18.023Z,9.80
2017-05-06T06:25:46.977Z,9.80
2017-05-06T06:28:17.029Z,9.90
2017-05-06T06:30:46.003Z,10.00
2017-05-06T06:33:15.301Z,10.10
2017-05-06T06:35:44.265Z,10.10
2017-05-06T06:38:13.228Z,10.20
2017-05-06T06:40:42.499Z,10.20
2017-05-06T06:43:11.453Z,10.30
2017-05-06T06:45:40.430Z,10.40
2017-05-06T06:48:10.158Z,10.40
2017-05-06T06:50:39.123Z,10.50
2017-05-06T06:53:09.204Z,10.60
2017-05-06T06:55:38.157Z,10.60
2017-05-06T06:58:07.166Z,10.70
2017-05-06T07:00:36.964Z,10.80
2017-05-06T07:03:05.933Z,10.90
2017-05-06T07:05:35.922Z,10.90
2017-05-06T07:08:04.926Z,11.00
2017-05-06T07:10:34.620Z,11.10
2017-05-06T07:13:03.593Z,11.20
2017-05-06T07:15:32.600Z,11.30
2017-05-06T07:18:01.509Z,11.40
2017-05-06T07:20:31.220Z,11.60
2017-05-06T07:23:01.297Z,11.80
2017-05-06T07:25:30.278Z,11.80
2017-05-06T07:27:59.273Z,11.80
2017-05-06T07:30:28.513Z,11.80
2017-05-06T07:32:58.293Z,11.80
2017-05-06T07:35:27.176Z,11.90
2017-05-06T07:37:56.179Z,12.00
2017-05-06T07:40:25.161Z,12.00
2017-05-06T07:42:54.395Z,12.10
2017-05-06T07:45:24.108Z,12.20
2017-05-06T07:47:54.183Z,12.40
2017-05-06T07:50:23.187Z,12.50
2017-05-06T07:52:52.164Z,12.50
2017-05-06T07:55:21.150Z,12.60
2017-05-06T07:57:50.179Z,12.70
2017-05-06T08:00:20.365Z,12.70
2017-05-06T08:02:49.325Z,12.80
2017-05-06T08:05:18.294Z,12.90
2017-05-06T08:07:47.654Z,13.00
2017-05-06T08:10:16.626Z,13.10
2017-05-06T08:12:45.599Z,13.30
2017-05-06T08:15:14.963Z,13.30
2017-05-06T08:17:44.655Z,13.30
2017-05-06T08:20:13.643Z,13.40
2017-05-06T08:22:42.646Z,13.50
2017-05-06T08:25:12.360Z,13.50
2017-05-06T08:27:42.443Z,13.60
2017-05-06T08:30:11.415Z,13.60
2017-05-06T08:32:40.441Z,13.70
2017-05-06T08:35:10.270Z,13.70
2017-05-06T08:37:40.003Z,13.80
2017-05-06T08:40:08.968Z,14.00
2017-05-06T08:42:38.696Z,14.10
2017-05-06T08:45:08.053Z,14.20
2017-05-06T08:47:37.018Z,14.30
2017-05-06T08:50:05.973Z,14.30
2017-05-06T08:52:35.259Z,14.30
2017-05-06T08:55:04.875Z,14.40
2017-05-06T08:57:33.872Z,14.60
2017-05-06T09:00:02.859Z,14.80
2017-05-06T09:02:32.553Z,14.90
2017-05-06T09:05:02.654Z,15.00
2017-05-06T09:07:31.624Z,15.20
2017-05-06T09:10:00.588Z,15.30
2017-05-06T09:12:29.591Z,15.40
2017-05-06T09:14:58.554Z,15.60
2017-05-06T09:17:27.866Z,15.70
2017-05-06T09:19:56.851Z,15.80
2017-05-06T09:22:25.797Z,16.00
2017-05-06T09:24:55.184Z,16.20
2017-05-06T09:27:24.151Z,16.40
2017-05-06T09:29:53.113Z,16.60
2017-05-06T09:32:22.472Z,16.70
2017-05-06T09:34:51.431Z,16.70
2017-05-06T09:37:20.387Z,16.80
2017-05-06T09:39:50.090Z,16.80
2017-05-06T09:42:19.795Z,16.80
2017-05-06T09:44:49.790Z,16.90
2017-05-06T09:47:18.749Z,17.20
2017-05-06T09:49:47.719Z,17.40
2017-05-06T09:52:16.783Z,17.50
2017-05-06T09:54:46.486Z,17.70
2017-05-06T09:57:16.480Z,18.00
2017-05-06T09:59:45.456Z,18.20
2017-05-06T10:02:14.425Z,18.50
2017-05-06T10:04:43.739Z,18.80
2017-05-06T10:07:12.675Z,19.20
2017-05-06T10:09:42.366Z,19.60
2017-05-06T10:12:11.328Z,19.90
2017-05-06T10:14:40.281Z,20.30
2017-05-06T10:17:09.625Z,20.50
2017-05-06T10:19:38.569Z,20.70
2017-05-06T10:22:07.527Z,20.90
2017-05-06T10:24:36.505Z,21.10
2017-05-06T10:27:05.450Z,21.40
2017-05-06T10:29:34.910Z,21.70
2017-05-06T10:32:03.869Z,22.00
2017-05-06T10:34:32.842Z,22.10
2017-05-06T10:37:01.817Z,22.10
2017-05-06T10:39:30.787Z,22.10
2017-05-06T10:42:00.519Z,22.20
2017-05-06T10:44:29.471Z,22.40
2017-05-06T10:46:58.693Z,22.60
2017-05-06T10:49:27.664Z,22.90
2017-05-06T10:51:56.615Z,23.30
2017-05-06T10:54:25.576Z,23.60
2017-05-06T10:56:54.522Z,23.80
2017-05-06T10:59:23.468Z,24.00
2017-05-06T11:01:52.783Z,24.30
2017-05-06T11:04:21.731Z,24.50
2017-05-06T11:06:51.427Z,24.60
2017-05-06T11:09:21.512Z,24.70
2017-05-06T11:11:50.469Z,24.80
2017-05-06T11:14:19.414Z,24.90
2017-05-06T11:16:48.398Z,25.00
2017-05-06T11:19:17.357Z,25.10
2017-05-06T11:21:46.676Z,25.30
2017-05-06T11:24:15.646Z,25.50
2017-05-06T11:26:44.582Z,25.70
2017-05-06T11:29:13.892Z,25.90
2017-05-06T11:31:43.615Z,25.90
2017-05-06T11:34:12.978Z,26.10
2017-05-06T11:36:41.918Z,26.20
2017-05-06T11:39:10.874Z,26.40
2017-05-06T11:41:40.586Z,26.50
2017-05-06T11:44:10.286Z,26.30
2017-05-06T11:46:39.654Z,26.10
2017-05-06T11:49:08.672Z,26.20
2017-05-06T11:51:37.619Z,26.40
2017-05-06T11:54:06.613Z,26.80
2017-05-06T11:56:35.627Z,27.00
2017-05-06T11:59:04.858Z,27.30
2017-05-06T12:01:34.555Z,27.50
2017-05-06T12:04:03.510Z,27.90
2017-05-06T12:06:32.458Z,28.10
2017-05-06T12:09:01.412Z,28.30
2017-05-06T12:11:30.457Z,28.30
2017-05-06T12:13:59.417Z,28.50
2017-05-06T12:16:29.138Z,28.60
2017-05-06T12:18:58.116Z,28.80
2017-05-06T12:21:28.188Z,28.80
2017-05-06T12:23:57.142Z,28.90
2017-05-06T12:26:26.126Z,29.10
2017-05-06T12:28:55.494Z,29.30
2017-05-06T12:31:24.490Z,29.30
2017-05-06T12:33:53.442Z,29.30
2017-05-06T12:36:22.417Z,29.60
2017-05-06T12:38:51.361Z,29.90
2017-05-06T12:41:20.648Z,29.90
2017-05-06T12:43:49.616Z,29.70
2017-05-06T12:46:18.578Z,29.70
2017-05-06T12:48:47.535Z,29.70
2017-05-06T12:51:16.514Z,29.80
2017-05-06T12:53:45.822Z,29.70
2017-05-06T12:56:14.773Z,29.40
2017-05-06T12:58:43.759Z,29.10
2017-05-06T13:01:12.757Z,28.90
2017-05-06T13:03:41.787Z,28.70
2017-05-06T13:06:11.058Z,28.60
2017-05-06T13:08:40.013Z,28.70
2017-05-06T13:11:08.972Z,28.80
2017-05-06T13:13:37.867Z,29.00
2017-05-06T13:16:06.819Z,29.30
2017-05-06T13:18:36.122Z,29.30
2017-05-06T13:21:05.040Z,29.40
2017-05-06T13:23:33.994Z,29.20
2017-05-06T13:26:02.984Z,29.10
2017-05-06T13:28:31.948Z,29.10
2017-05-06T13:31:00.841Z,29.00
2017-05-06T13:33:29.830Z,28.90
2017-05-06T13:35:59.081Z,28.90
2017-05-06T13:38:28.017Z,29.10
2017-05-06T13:40:56.975Z,29.40
2017-05-06T13:43:27.177Z,29.70
2017-05-06T13:45:56.124Z,30.00
2017-05-06T13:48:25.484Z,30.20
2017-05-06T13:50:55.198Z,30.30
2017-05-06T13:53:24.934Z,30.40
2017-05-06T13:55:54.189Z,30.50
2017-05-06T13:58:23.313Z,30.40
2017-05-06T14:00:52.277Z,30.10
2017-05-06T14:03:21.545Z,29.50
2017-05-06T14:05:56.063Z,29.00
2017-05-06T14:08:31.112Z,28.30
2017-05-06T14:11:07.096Z,27.70
2017-05-06T14:13:42.154Z,27.30
2017-05-06T14:16:17.607Z,27.00
2017-05-06T14:18:52.668Z,26.90
2017-05-06T14:21:27.930Z,27.10
2017-05-06T14:24:02.835Z,27.10
2017-05-06T14:26:38.790Z,26.90
2017-05-06T14:29:14.223Z,26.60
2017-05-06T14:31:49.521Z,26.00
2017-05-06T14:34:24.461Z,25.50
2017-05-06T14:36:59.789Z,25.10
2017-05-06T14:39:35.127Z,24.90
2017-05-06T14:42:10.531Z,24.60
2017-05-06T14:44:45.562Z,24.30
2017-05-06T14:47:14.520Z,24.10
2017-05-06T14:49:43.489Z,23.90
2017-05-06T14:52:12.486Z,23.60
2017-05-06T14:54:47.011Z,23.50
2017-05-06T14:57:21.726Z,23.40
2017-05-06T14:59:57.026Z,23.30
2017-05-06T15:02:32.864Z,23.30
2017-05-06T15:05:07.639Z,23.10
2017-05-06T15:07:42.599Z,23.10
2017-05-06T15:10:17.890Z,23.00
2017-05-06T15:12:52.688Z,23.00
2017-05-06T15:15:28.042Z,23.00
2017-05-06T15:18:03.035Z,23.00
2017-05-06T15:20:37.687Z,23.20
2017-05-06T15:23:12.696Z,23.40
2017-05-06T15:25:47.522Z,23.60
2017-05-06T15:28:21.658Z,23.60
2017-05-06T15:30:56.796Z,23.90
2017-05-06T15:33:32.451Z,24.00
2017-05-06T15:36:07.886Z,24.20
2017-05-06T15:38:43.004Z,24.80
2017-05-06T15:41:18.276Z,25.40
2017-05-06T15:43:47.056Z,25.60
2017-05-06T15:46:15.996Z,25.80
2017-05-06T15:48:44.954Z,26.10
2017-05-06T15:51:14.675Z,26.50
2017-05-06T15:53:43.616Z,26.70
2017-05-06T15:56:12.574Z,26.80
2017-05-06T15:58:41.558Z,26.60
2017-05-06T16:01:10.881Z,26.10
2017-05-06T16:03:39.904Z,25.50
2017-05-06T16:06:09.643Z,25.00
2017-05-06T16:08:38.995Z,24.90
2017-05-06T16:11:07.959Z,25.00
2017-05-06T16:13:36.922Z,24.80
2017-05-06T16:16:05.895Z,24.60
2017-05-06T16:18:35.590Z,24.20
2017-05-06T16:21:04.861Z,24.00
2017-05-06T16:23:33.840Z,23.80
2017-05-06T16:26:02.791Z,23.60
2017-05-06T16:28:32.510Z,23.30
2017-05-06T16:31:01.483Z,23.20
2017-05-06T16:33:31.533Z,23.10
2017-05-06T16:36:00.485Z,23.00
2017-05-06T16:38:30.188Z,23.10
2017-05-06T16:40:59.167Z,23.20
2017-05-06T16:43:28.135Z,23.20
2017-05-06T16:45:57.384Z,23.20
2017-05-06T16:48:27.491Z,23.10
2017-05-06T16:50:56.469Z,22.90
2017-05-06T16:53:26.965Z,22.70
2017-05-06T16:55:55.948Z,22.50
2017-05-06T16:58:24.935Z,22.30
2017-05-06T17:00:53.922Z,22.10
2017-05-06T17:03:23.177Z,22.00
2017-05-06T17:05:52.890Z,21.70
2017-05-06T17:08:22.579Z,21.50
2017-05-06T17:10:51.874Z,21.40
2017-05-06T17:13:20.841Z,21.20
2017-05-06T17:15:49.825Z,21.10
2017-05-06T17:18:19.121Z,20.90
2017-05-06T17:20:48.084Z,20.80
2017-05-06T17:23:17.039Z,20.60
2017-05-06T17:25:46.044Z,20.50
2017-05-06T17:28:16.145Z,20.40
2017-05-06T17:30:45.015Z,20.40
2017-05-06T17:33:14.707Z,20.30
2017-05-06T17:35:43.716Z,20.20
2017-05-06T17:38:12.700Z,20.20
2017-05-06T17:40:42.000Z,20.10
2017-05-06T17:43:10.961Z,20.00
2017-05-06T17:45:39.929Z,20.00
2017-05-06T17:48:10.014Z,19.90
2017-05-06T17:50:39.129Z,19.80
2017-05-06T17:53:08.867Z,19.70
2017-05-06T17:55:37.832Z,19.70
2017-05-06T17:58:07.534Z,19.60
2017-05-06T18:00:36.508Z,19.50
2017-05-06T18:03:05.895Z,19.50
2017-05-06T18:05:34.893Z,19.30
2017-05-06T18:08:03.858Z,19.30
2017-05-06T18:10:33.097Z,19.20
2017-05-06T18:13:02.067Z,19.10
2017-05-06T18:15:31.042Z,19.00
2017-05-06T18:18:00.366Z,18.90
2017-05-06T18:20:29.316Z,18.90
2017-05-06T18:22:58.265Z,18.70
2017-05-06T18:25:27.244Z,18.60
2017-05-06T18:27:56.191Z,18.50
2017-05-06T18:30:25.184Z,18.40
2017-05-06T18:32:54.141Z,18.30
2017-05-06T18:35:23.893Z,18.10
2017-05-06T18:37:52.788Z,18.00
2017-05-06T18:40:22.102Z,17.90
2017-05-06T18:42:51.086Z,17.70
2017-05-06T18:45:20.093Z,17.60
2017-05-06T18:47:49.082Z,17.50
2017-05-06T18:50:18.093Z,17.40
2017-05-06T18:52:48.088Z,17.20
2017-05-06T18:55:17.041Z,17.20
2017-05-06T18:57:45.989Z,17.20
2017-05-06T19:00:16.077Z,17.10
2017-05-06T19:02:45.048Z,17.10
2017-05-06T19:05:14.021Z,17.00
2017-05-06T19:07:43.033Z,16.90
2017-05-06T19:10:12.012Z,16.90
2017-05-06T19:12:40.993Z,16.90
2017-05-06T19:15:09.963Z,16.80
2017-05-06T19:17:39.945Z,16.80
2017-05-06T19:20:08.916Z,16.70
2017-05-06T19:22:37.874Z,16.70
2017-05-06T19:25:06.882Z,16.70
2017-05-06T19:27:35.854Z,16.70
2017-05-06T19:30:05.167Z,16.70
2017-05-06T19:32:34.137Z,16.70
2017-05-06T19:35:03.120Z,16.70
2017-05-06T19:37:32.386Z,16.60
2017-05-06T19:40:01.361Z,16.60
2017-05-06T19:42:30.248Z,16.50
2017-05-06T19:44:59.995Z,16.50
2017-05-06T19:47:29.745Z,16.40
2017-05-06T19:49:58.754Z,16.40
2017-05-06T19:52:27.752Z,16.40
2017-05-06T19:54:56.759Z,16.30
2017-05-06T19:57:25.722Z,16.30
2017-05-06T19:59:55.192Z,16.30
2017-05-06T20:02:24.164Z,16.20
2017-05-06T20:04:53.902Z,16.10
2017-05-06T20:07:22.894Z,16.10
2017-05-06T20:09:52.238Z,16.10
2017-05-06T20:12:21.199Z,16.10
2017-05-06T20:14:50.183Z,16.10
2017-05-06T20:17:19.424Z,16.00
2017-05-06T20:19:48.301Z,16.00
2017-05-06T20:22:18.047Z,16.00
2017-05-06T20:24:47.419Z,16.00
2017-05-06T20:27:16.372Z,16.00
2017-05-06T20:29:45.433Z,16.00
2017-05-06T20:32:15.156Z,15.90
2017-05-06T20:34:44.095Z,15.90
2017-05-06T20:37:13.375Z,15.80
2017-05-06T20:39:42.348Z,15.80
2017-05-06T20:42:11.301Z,15.70
2017-05-06T20:44:41.378Z,15.70
2017-05-06T20:47:10.331Z,15.70
2017-05-06T20:49:39.313Z,15.70
2017-05-06T20:52:08.654Z,15.70
2017-05-06T20:54:37.626Z,15.70
2017-05-06T20:57:06.593Z,15.70
2017-05-06T20:59:35.855Z,15.70
2017-05-06T21:02:04.865Z,15.70
2017-05-06T21:04:34.591Z,15.70
2017-05-06T21:07:03.967Z,15.70
2017-05-06T21:09:32.924Z,15.70
2017-05-06T21:12:01.873Z,15.60
2017-05-06T21:14:30.868Z,15.60
2017-05-06T21:16:59.854Z,15.60
2017-05-06T21:19:28.856Z,15.60
2017-05-06T21:21:57.831Z,15.60
2017-05-06T21:24:26.935Z,15.60
2017-05-06T21:26:55.890Z,15.60
2017-05-06T21:29:25.166Z,15.50
2017-05-06T21:31:54.130Z,15.60
2017-05-06T21:34:23.182Z,15.50
2017-05-06T21:36:52.929Z,15.50
2017-05-06T21:39:21.906Z,15.50
2017-05-06T21:41:51.242Z,15.50
2017-05-06T21:44:20.216Z,15.40
2017-05-06T21:46:49.167Z,15.40
2017-05-06T21:49:19.245Z,15.30
2017-05-06T21:51:48.218Z,15.30
2017-05-06T21:54:17.191Z,15.30
2017-05-06T21:56:46.434Z,15.30
2017-05-06T21:59:15.428Z,15.20
2017-05-06T22:01:44.403Z,15.20
2017-05-06T22:04:13.361Z,15.20
2017-05-06T22:06:42.317Z,15.10
2017-05-06T22:09:12.390Z,15.00
2017-05-06T22:11:41.397Z,14.90
2017-05-06T22:14:10.361Z,14.80
2017-05-06T22:16:39.679Z,14.70
2017-05-06T22:19:08.677Z,14.60
2017-05-06T22:21:37.633Z,14.60
2017-05-06T22:24:06.954Z,14.60
2017-05-06T22:26:35.921Z,14.50
2017-05-06T22:29:04.897Z,14.50
2017-05-06T22:31:33.865Z,14.50
2017-05-06T22:34:03.564Z,14.40
2017-05-06T22:36:33.565Z,14.40
2017-05-06T22:39:02.545Z,14.40
2017-05-06T22:41:31.523Z,14.40
2017-05-06T22:44:00.515Z,14.30
2017-05-06T22:46:29.495Z,14.30
2017-05-06T22:48:58.483Z,14.30
2017-05-06T22:51:27.450Z,14.20
2017-05-06T22:53:56.440Z,14.20
2017-05-06T22:56:25.415Z,14.10
2017-05-06T22:58:55.150Z,14.10
2017-05-06T23:01:24.144Z,14.00
2017-05-06T23:03:53.134Z,14.00
2017-05-06T23:06:22.106Z,14.00
2017-05-06T23:08:51.833Z,13.90
2017-05-06T23:11:20.805Z,13.80
2017-05-06T23:13:50.889Z,13.80
2017-05-06T23:16:20.612Z,13.80
2017-05-06T23:18:49.580Z,13.70
2017-05-06T23:21:18.862Z,13.70
2017-05-06T23:23:47.859Z,13.60
2017-05-06T23:26:16.889Z,13.60
2017-05-06T23:28:46.614Z,13.50
2017-05-06T23:31:32.448Z,13.50
2017-05-06T23:34:01.722Z,13.50
2017-05-06T23:36:30.688Z,13.50
2017-05-06T23:38:59.751Z,13.40
2017-05-06T23:41:29.019Z,13.40
2017-05-06T23:43:58.140Z,13.30
2017-05-06T23:46:27.093Z,13.30
2017-05-06T23:48:56.426Z,13.20
2017-05-06T23:51:25.390Z,13.20
2017-05-06T23:53:54.333Z,13.30
2017-05-06T23:56:23.977Z,13.30
2017-05-06T23:58:52.960Z,13.20
